createdAt,value
2023-01-17T00:00:34.972Z,93612.75
2023-01-17T00:03:01.592Z,93620.78
2023-01-17T00:05:46.633Z,93613.72
2023-01-17T00:08:31.794Z,93607.69
2023-01-17T00:10:58.824Z,93606.19
2023-01-17T00:13:25.361Z,93606.72
2023-01-17T00:15:52.223Z,93613.59
2023-01-17T00:18:18.920Z,93612.63
2023-01-17T00:21:04.078Z,93614.88
2023-01-17T00:23:48.910Z,93610.97
2023-01-17T00:26:17.117Z,93607.22
2023-01-17T00:28:44.016Z,93615.72
2023-01-17T00:31:11.604Z,93621.28
2023-01-17T00:33:38.151Z,93622.94
2023-01-17T00:36:05.043Z,93624.75
2023-01-17T00:38:32.551Z,93636.38
2023-01-17T00:41:03.271Z,93632.09
2023-01-17T00:43:48.738Z,93639.78
2023-01-17T00:46:34.004Z,93645.88
2023-01-17T00:49:19.153Z,93645.69
2023-01-17T00:52:04.022Z,93650.09
2023-01-17T00:54:49.080Z,93661.72
2023-01-17T00:57:33.970Z,93655.81
2023-01-17T01:00:19.118Z,93656.81
2023-01-17T01:03:04.214Z,93658.44
2023-01-17T01:05:49.175Z,93665.31
2023-01-17T01:08:42.585Z,93670.22
2023-01-17T01:11:29.155Z,93666.63
2023-01-17T01:14:14.557Z,93675.94
2023-01-17T01:16:59.883Z,93668.53
2023-01-17T01:19:45.061Z,93666.94
2023-01-17T01:22:29.974Z,93668.44
2023-01-17T01:25:15.063Z,93665.63
2023-01-17T01:28:00.027Z,93660.69
2023-01-17T01:30:45.178Z,93668.38
2023-01-17T01:33:21.460Z,93672.78
2023-01-17T01:35:51.660Z,93669.53
2023-01-17T01:38:19.251Z,93679.19
2023-01-17T01:40:47.229Z,93679.84
2023-01-17T01:43:15.129Z,93686.06
2023-01-17T01:45:44.734Z,93676.06
2023-01-17T01:48:23.115Z,93677.22
2023-01-17T01:50:50.779Z,93688.03
2023-01-17T01:53:19.973Z,93688.19
2023-01-17T01:55:49.247Z,93687.19
2023-01-17T01:58:20.877Z,93690.81
2023-01-17T02:00:47.522Z,93689.00
2023-01-17T02:03:16.453Z,93695.88
2023-01-17T02:05:43.813Z,93701.59
2023-01-17T02:08:14.289Z,93702.88
2023-01-17T02:10:41.502Z,93705.22
2023-01-17T02:13:09.380Z,93696.69
2023-01-17T02:15:41.895Z,93702.41
2023-01-17T02:18:26.914Z,93704.38
2023-01-17T02:21:02.515Z,93704.38
2023-01-17T02:23:47.916Z,93709.97
2023-01-17T02:26:23.219Z,93702.59
2023-01-17T02:28:49.727Z,93704.88
2023-01-17T02:31:20.736Z,93698.78
2023-01-17T02:34:10.104Z,93697.19
2023-01-17T02:36:40.074Z,93689.78
2023-01-17T02:39:13.017Z,93687.81
2023-01-17T02:41:41.591Z,93693.22
2023-01-17T02:44:08.885Z,93695.19
2023-01-17T02:46:55.451Z,93700.59
2023-01-17T02:49:24.918Z,93696.22
2023-01-17T02:51:51.406Z,93696.91
2023-01-17T02:54:29.947Z,93692.81
2023-01-17T02:56:59.447Z,93687.91
2023-01-17T02:59:28.711Z,93683.97
2023-01-17T03:02:17.149Z,93686.41
2023-01-17T03:04:48.380Z,93695.75
2023-01-17T03:07:17.678Z,93693.09
2023-01-17T03:09:45.956Z,93693.91
2023-01-17T03:12:13.330Z,93703.56
2023-01-17T03:14:39.872Z,93705.53
2023-01-17T03:17:06.687Z,93706.19
2023-01-17T03:19:33.745Z,93703.75
2023-01-17T03:22:00.349Z,93699.31
2023-01-17T03:24:26.880Z,93707.38
2023-01-17T03:26:53.492Z,93711.50
2023-01-17T03:29:20.425Z,93712.13
2023-01-17T03:31:47.058Z,93717.03
2023-01-17T03:34:13.563Z,93715.72
2023-01-17T03:36:40.051Z,93706.41
2023-01-17T03:39:06.684Z,93712.13
2023-01-17T03:41:33.339Z,93715.69
2023-01-17T03:44:00.999Z,93710.78
2023-01-17T03:46:28.796Z,93704.72
2023-01-17T03:48:55.431Z,93703.00
2023-01-17T03:51:22.288Z,93699.97
2023-01-17T03:53:50.062Z,93704.91
2023-01-17T03:56:16.686Z,93710.78
2023-01-17T03:58:43.286Z,93703.25
2023-01-17T04:01:09.885Z,93709.03
2023-01-17T04:03:36.484Z,93699.03
2023-01-17T04:06:02.996Z,93699.88
2023-01-17T04:08:30.635Z,93698.06
2023-01-17T04:10:57.208Z,93695.75
2023-01-17T04:13:23.732Z,93692.47
2023-01-17T04:15:51.234Z,93699.88
2023-01-17T04:18:18.466Z,93704.09
2023-01-17T04:20:45.077Z,93706.91
2023-01-17T04:23:11.609Z,93712.97
2023-01-17T04:25:38.103Z,93714.25
2023-01-17T04:28:04.964Z,93709.34
2023-01-17T04:30:32.330Z,93718.03
2023-01-17T04:32:59.252Z,93712.13
2023-01-17T04:35:26.012Z,93711.31
2023-01-17T04:37:53.042Z,93712.47
2023-01-17T04:40:19.601Z,93713.13
2023-01-17T04:42:46.653Z,93704.09
2023-01-17T04:45:13.522Z,93702.13
2023-01-17T04:47:40.165Z,93705.25
2023-01-17T04:50:07.416Z,93706.41
2023-01-17T04:52:33.902Z,93707.59
2023-01-17T04:55:00.473Z,93711.19
2023-01-17T04:57:27.218Z,93717.41
2023-01-17T04:59:53.758Z,93721.16
2023-01-17T05:02:20.494Z,93725.63
2023-01-17T05:04:47.092Z,93729.88
2023-01-17T05:07:13.614Z,93733.66
2023-01-17T05:09:40.150Z,93733.50
2023-01-17T05:12:06.684Z,93731.38
2023-01-17T05:14:34.407Z,93737.44
2023-01-17T05:17:03.166Z,93728.78
2023-01-17T05:19:29.970Z,93743.66
2023-01-17T05:22:04.024Z,93743.19
2023-01-17T05:24:31.277Z,93739.88
2023-01-17T05:27:03.181Z,93743.97
2023-01-17T05:29:30.520Z,93748.59
2023-01-17T05:31:57.118Z,93754.00
2023-01-17T05:34:23.843Z,93763.16
2023-01-17T05:36:50.413Z,93770.16
2023-01-17T05:39:16.983Z,93773.47
2023-01-17T05:41:43.540Z,93768.84
2023-01-17T05:44:10.101Z,93762.31
2023-01-17T05:46:36.676Z,93756.25
2023-01-17T05:49:03.308Z,93766.56
2023-01-17T05:51:29.920Z,93776.53
2023-01-17T05:53:56.719Z,93791.09
2023-01-17T05:56:23.369Z,93806.69
2023-01-17T05:58:49.925Z,93807.66
2023-01-17T06:01:17.776Z,93808.13
2023-01-17T06:03:44.307Z,93812.53
2023-01-17T06:06:10.867Z,93824.16
2023-01-17T06:08:37.362Z,93826.78
2023-01-17T06:11:03.875Z,93837.91
2023-01-17T06:13:30.439Z,93835.31
2023-01-17T06:16:02.837Z,93836.13
2023-01-17T06:18:30.252Z,93840.38
2023-01-17T06:20:57.325Z,93836.09
2023-01-17T06:23:24.499Z,93848.41
2023-01-17T06:25:51.292Z,93845.63
2023-01-17T06:28:19.121Z,93856.91
2023-01-17T06:30:45.830Z,93854.28
2023-01-17T06:33:12.707Z,93855.41
2023-01-17T06:35:40.993Z,93850.00
2023-01-17T06:38:07.791Z,93850.53
2023-01-17T06:40:34.413Z,93855.13
2023-01-17T06:43:01.898Z,93860.53
2023-01-17T06:45:29.963Z,93858.72
2023-01-17T06:47:56.523Z,93861.50
2023-01-17T06:50:23.053Z,93859.03
2023-01-17T06:52:56.721Z,93859.03
2023-01-17T06:55:23.503Z,93863.78
2023-01-17T06:57:50.754Z,93857.06
2023-01-17T07:00:17.455Z,93863.44
2023-01-17T07:02:47.867Z,93857.06
2023-01-17T07:05:16.384Z,93861.66
2023-01-17T07:07:43.301Z,93867.38
2023-01-17T07:10:10.478Z,93878.34
2023-01-17T07:12:37.013Z,93874.75
2023-01-17T07:15:03.671Z,93871.78
2023-01-17T07:17:30.188Z,93870.47
2023-01-17T07:19:56.772Z,93872.28
2023-01-17T07:22:23.302Z,93873.91
2023-01-17T07:24:49.787Z,93881.94
2023-01-17T07:27:16.326Z,93885.03
2023-01-17T07:29:42.845Z,93897.50
2023-01-17T07:32:11.006Z,93896.19
2023-01-17T07:34:37.600Z,93906.50
2023-01-17T07:37:04.105Z,93909.13
2023-01-17T07:39:31.183Z,93913.88
2023-01-17T07:41:57.717Z,93916.31
2023-01-17T07:44:24.269Z,93926.47
2023-01-17T07:46:50.834Z,93914.53
2023-01-17T07:49:17.412Z,93916.81
2023-01-17T07:51:43.948Z,93904.03
2023-01-17T07:54:11.544Z,93911.22
2023-01-17T07:56:38.745Z,93912.88
2023-01-17T07:59:05.278Z,93913.22
2023-01-17T08:01:31.968Z,93902.75
2023-01-17T08:03:58.607Z,93920.91
2023-01-17T08:06:25.860Z,93927.97
2023-01-17T08:08:55.186Z,93929.91
2023-01-17T08:11:21.790Z,93932.53
2023-01-17T08:13:48.461Z,93930.59
2023-01-17T08:16:15.474Z,93932.19
2023-01-17T08:18:42.053Z,93929.91
2023-01-17T08:21:13.374Z,93925.34
2023-01-17T08:23:39.903Z,93927.63
2023-01-17T08:26:06.445Z,93924.03
2023-01-17T08:28:32.969Z,93921.72
2023-01-17T08:31:05.740Z,93916.16
2023-01-17T08:33:32.976Z,93916.31
2023-01-17T08:35:59.488Z,93919.06
2023-01-17T08:38:26.052Z,93917.41
2023-01-17T08:40:52.565Z,93915.47
2023-01-17T08:43:19.113Z,93927.25
2023-01-17T08:45:46.125Z,93928.38
2023-01-17T08:48:12.662Z,93929.84
2023-01-17T08:50:39.167Z,93925.22
2023-01-17T08:53:06.107Z,93930.47
2023-01-17T08:55:33.618Z,93929.00
2023-01-17T08:58:00.125Z,93931.00
2023-01-17T09:00:28.858Z,93924.09
2023-01-17T09:02:55.474Z,93927.84
2023-01-17T09:05:22.383Z,93936.38
2023-01-17T09:07:48.887Z,93936.69
2023-01-17T09:10:15.528Z,93944.72
2023-01-17T09:12:42.063Z,93943.59
2023-01-17T09:15:08.712Z,93942.78
2023-01-17T09:17:35.293Z,93939.34
2023-01-17T09:20:01.860Z,93946.72
2023-01-17T09:22:28.426Z,93950.50
2023-01-17T09:24:55.028Z,93940.34
2023-01-17T09:27:21.519Z,93942.63
2023-01-17T09:29:48.060Z,93944.28
2023-01-17T09:32:17.230Z,93931.47
2023-01-17T09:34:44.446Z,93919.81
2023-01-17T09:37:10.926Z,93915.41
2023-01-17T09:39:37.447Z,93904.94
2023-01-17T09:42:30.615Z,93908.69
2023-01-17T09:44:57.594Z,93908.84
2023-01-17T09:47:56.612Z,93895.91
2023-01-17T09:50:27.237Z,93889.50
2023-01-17T09:53:14.007Z,93861.66
2023-01-17T09:55:43.554Z,93875.22
2023-01-17T09:58:17.955Z,93878.81
2023-01-17T10:00:44.482Z,93885.00
2023-01-17T10:03:14.032Z,93876.47
2023-01-17T10:05:40.626Z,93877.47
2023-01-17T10:08:17.725Z,93866.59
2023-01-17T10:11:16.377Z,93868.06
2023-01-17T10:13:45.627Z,93859.84
2023-01-17T10:16:27.541Z,93850.66
2023-01-17T10:19:00.098Z,93853.94
2023-01-17T10:21:34.114Z,93861.97
2023-01-17T10:24:16.487Z,93866.75
2023-01-17T10:26:48.623Z,93866.75
2023-01-17T10:29:20.095Z,93864.59
2023-01-17T10:31:59.479Z,93873.16
2023-01-17T10:34:31.952Z,93875.00
2023-01-17T10:37:18.732Z,93887.28
2023-01-17T10:39:48.110Z,93875.81
2023-01-17T10:42:26.919Z,93862.06
2023-01-17T10:44:58.150Z,93858.59
2023-01-17T10:47:25.023Z,93863.22
2023-01-17T10:49:55.207Z,93859.75
2023-01-17T10:52:24.569Z,93861.22
2023-01-17T10:55:10.138Z,93856.16
2023-01-17T10:57:41.655Z,93855.97
2023-01-17T11:00:20.280Z,93861.22
2023-01-17T11:02:49.654Z,93858.59
2023-01-17T11:05:26.652Z,93842.06
2023-01-17T11:08:00.626Z,93840.25
2023-01-17T11:10:39.956Z,93834.50
2023-01-17T11:13:25.090Z,93829.38
2023-01-17T11:15:57.836Z,93821.38
2023-01-17T11:18:28.719Z,93816.94
2023-01-17T11:21:09.569Z,93809.53
2023-01-17T11:23:36.250Z,93801.50
2023-01-17T11:26:04.860Z,93787.22
2023-01-17T11:28:38.799Z,93785.22
2023-01-17T11:31:09.855Z,93778.97
2023-01-17T11:33:45.295Z,93770.75
2023-01-17T11:36:19.558Z,93770.94
2023-01-17T11:39:05.067Z,93756.63
2023-01-17T11:41:34.415Z,93758.72
2023-01-17T11:44:01.429Z,93742.34
2023-01-17T11:46:32.329Z,93731.69
2023-01-17T11:49:00.138Z,93725.94
2023-01-17T11:51:34.096Z,93728.75
2023-01-17T11:54:08.315Z,93724.34
2023-01-17T11:56:36.742Z,93736.94
2023-01-17T11:59:10.033Z,93742.94
2023-01-17T12:01:45.934Z,93734.78
2023-01-17T12:04:18.630Z,93720.56
2023-01-17T12:06:57.104Z,93714.28
2023-01-17T12:09:24.327Z,93719.94
2023-01-17T12:12:21.073Z,93719.78
2023-01-17T12:14:56.400Z,93731.78
2023-01-17T12:17:39.105Z,93720.56
2023-01-17T12:20:12.818Z,93723.69
2023-01-17T12:22:46.600Z,93717.81
2023-01-17T12:25:48.691Z,93722.41
2023-01-17T12:28:17.942Z,93723.06
2023-01-17T12:30:59.613Z,93725.31
2023-01-17T12:33:46.024Z,93730.22
2023-01-17T12:36:21.740Z,93727.94
2023-01-17T12:38:48.739Z,93727.94
2023-01-17T12:41:18.375Z,93723.88
2023-01-17T12:43:45.903Z,93716.19
2023-01-17T12:46:20.976Z,93716.19
2023-01-17T12:48:56.675Z,93704.03
2023-01-17T12:51:31.429Z,93700.78
2023-01-17T12:54:07.196Z,93704.41
2023-01-17T12:56:35.677Z,93697.31
2023-01-17T12:59:20.841Z,93705.84
2023-01-17T13:01:57.690Z,93700.53
2023-01-17T13:04:57.225Z,93700.06
2023-01-17T13:07:29.275Z,93697.81
2023-01-17T13:09:59.850Z,93685.03
2023-01-17T13:12:29.232Z,93685.72
2023-01-17T13:14:56.843Z,93679.81
2023-01-17T13:17:32.678Z,93663.81
2023-01-17T13:20:18.545Z,93661.19
2023-01-17T13:22:46.018Z,93657.84
2023-01-17T13:25:15.585Z,93653.88
2023-01-17T13:27:50.881Z,93651.91
2023-01-17T13:30:22.292Z,93646.97
2023-01-17T13:33:15.544Z,93640.06
2023-01-17T13:35:58.290Z,93627.56
2023-01-17T13:38:27.656Z,93623.34
2023-01-17T13:41:17.744Z,93607.59
2023-01-17T13:44:05.578Z,93609.19
2023-01-17T13:46:51.962Z,93594.28
2023-01-17T13:49:33.946Z,93578.34
2023-01-17T13:52:12.272Z,93582.94
2023-01-17T13:54:52.624Z,93567.22
2023-01-17T13:57:40.091Z,93572.47
2023-01-17T14:00:22.129Z,93569.66
2023-01-17T14:02:49.529Z,93568.84
2023-01-17T14:05:42.222Z,93564.59
2023-01-17T14:08:17.863Z,93555.91
2023-01-17T14:10:46.980Z,93553.91
2023-01-17T14:13:34.153Z,93543.41
2023-01-17T14:16:01.196Z,93534.53
2023-01-17T14:18:48.159Z,93519.44
2023-01-17T14:21:35.690Z,93516.63
2023-01-17T14:24:15.053Z,93504.13
2023-01-17T14:27:10.958Z,93495.28
2023-01-17T14:29:44.384Z,93480.16
2023-01-17T14:32:15.723Z,93480.16
2023-01-17T14:34:43.714Z,93482.69
2023-01-17T14:37:17.044Z,93474.53
2023-01-17T14:39:45.128Z,93481.34
2023-01-17T14:42:14.113Z,93480.69
2023-01-17T14:44:40.686Z,93480.09
2023-01-17T14:47:11.255Z,93485.53
2023-01-17T14:49:37.890Z,93476.09
2023-01-17T14:52:06.366Z,93475.63
2023-01-17T14:54:33.430Z,93467.75
2023-01-17T14:57:35.307Z,93474.00
2023-01-17T15:00:20.128Z,93477.53
2023-01-17T15:02:47.734Z,93475.25
2023-01-17T15:05:18.903Z,93473.84
2023-01-17T15:07:46.998Z,93472.41
2023-01-17T15:10:15.183Z,93476.81
2023-01-17T15:12:46.667Z,93473.00
2023-01-17T15:15:29.963Z,93470.75
2023-01-17T15:18:08.632Z,93472.72
2023-01-17T15:20:35.947Z,93477.66
2023-01-17T15:23:03.062Z,93471.75
2023-01-17T15:25:30.394Z,93469.78
2023-01-17T15:27:57.107Z,93458.63
2023-01-17T15:30:25.383Z,93468.13
2023-01-17T15:32:52.721Z,93479.09
2023-01-17T15:35:20.125Z,93476.81
2023-01-17T15:37:51.977Z,93479.63
2023-01-17T15:40:21.040Z,93472.91
2023-01-17T15:42:49.041Z,93471.94
2023-01-17T15:45:17.275Z,93474.38
2023-01-17T15:47:43.827Z,93470.28
2023-01-17T15:50:27.733Z,93472.72
2023-01-17T15:52:55.799Z,93470.19
2023-01-17T15:55:23.882Z,93473.28
2023-01-17T15:57:50.458Z,93472.41
2023-01-17T16:00:19.233Z,93466.31
2023-01-17T16:02:55.140Z,93467.16
2023-01-17T16:05:22.063Z,93470.13
2023-01-17T16:07:49.734Z,93478.53
2023-01-17T16:10:16.273Z,93484.78
2023-01-17T16:12:42.921Z,93491.84
2023-01-17T16:15:13.542Z,93485.94
2023-01-17T16:17:42.413Z,93482.53
2023-01-17T16:20:15.856Z,93496.25
2023-01-17T16:22:43.991Z,93493.81
2023-01-17T16:25:14.927Z,93481.88
2023-01-17T16:27:43.236Z,93489.94
2023-01-17T16:30:11.104Z,93491.09
2023-01-17T16:32:37.719Z,93490.66
2023-01-17T16:35:06.360Z,93499.44
2023-01-17T16:37:32.900Z,93500.59
2023-01-17T16:39:59.414Z,93496.81
2023-01-17T16:42:27.806Z,93499.44
2023-01-17T16:44:55.118Z,93509.91
2023-01-17T16:47:22.723Z,93512.25
2023-01-17T16:49:49.246Z,93513.44
2023-01-17T16:52:15.779Z,93512.81
2023-01-17T16:54:42.331Z,93499.03
2023-01-17T16:57:08.882Z,93488.56
2023-01-17T16:59:49.808Z,93466.59
2023-01-17T17:02:16.667Z,93456.09
2023-01-17T17:04:43.260Z,93458.72
2023-01-17T17:07:09.821Z,93447.56
2023-01-17T17:09:36.406Z,93447.31
2023-01-17T17:12:05.097Z,93450.66
2023-01-17T17:14:31.689Z,93448.56
2023-01-17T17:17:00.023Z,93446.75
2023-01-17T17:19:27.398Z,93445.78
2023-01-17T17:21:53.924Z,93440.81
2023-01-17T17:24:20.937Z,93435.56
2023-01-17T17:26:47.483Z,93422.28
2023-01-17T17:29:14.083Z,93434.56
2023-01-17T17:31:41.419Z,93430.47
2023-01-17T17:34:10.171Z,93434.63
2023-01-17T17:36:37.060Z,93425.69
2023-01-17T17:39:05.999Z,93427.94
2023-01-17T17:41:34.714Z,93435.63
2023-01-17T17:44:01.969Z,93436.44
2023-01-17T17:46:29.287Z,93440.53
2023-01-17T17:48:56.636Z,93432.47
2023-01-17T17:51:30.717Z,93434.44
2023-01-17T17:54:02.011Z,93424.16
2023-01-17T17:56:29.557Z,93427.59
2023-01-17T17:58:56.971Z,93427.41
2023-01-17T18:01:24.207Z,93427.59
2023-01-17T18:03:51.430Z,93430.75
2023-01-17T18:06:17.985Z,93425.88
2023-01-17T18:08:44.835Z,93429.47
2023-01-17T18:11:14.902Z,93429.47
2023-01-17T18:13:42.841Z,93428.31
2023-01-17T18:16:11.262Z,93418.63
2023-01-17T18:18:40.409Z,93423.53
2023-01-17T18:21:12.391Z,93437.25
2023-01-17T18:23:39.893Z,93439.69
2023-01-17T18:26:07.139Z,93442.50
2023-01-17T18:28:33.695Z,93438.78
2023-01-17T18:31:04.911Z,93425.69
2023-01-17T18:33:31.420Z,93425.50
2023-01-17T18:36:00.123Z,93426.78
2023-01-17T18:38:38.118Z,93410.84
2023-01-17T18:41:09.153Z,93407.44
2023-01-17T18:43:36.059Z,93400.72
2023-01-17T18:46:02.918Z,93399.66
2023-01-17T18:48:29.429Z,93405.88
2023-01-17T18:51:00.053Z,93405.88
2023-01-17T18:53:26.711Z,93409.34
2023-01-17T18:55:57.336Z,93409.94
2023-01-17T18:58:24.386Z,93415.19
2023-01-17T19:00:51.591Z,93413.03
2023-01-17T19:03:19.916Z,93399.56
2023-01-17T19:05:47.244Z,93395.59
2023-01-17T19:08:14.727Z,93395.59
2023-01-17T19:10:41.268Z,93395.59
2023-01-17T19:13:07.909Z,93384.81
2023-01-17T19:15:36.250Z,93385.75
2023-01-17T19:18:03.854Z,93390.34
2023-01-17T19:20:30.787Z,93385.28
2023-01-17T19:22:57.640Z,93382.66
2023-01-17T19:25:25.683Z,93378.69
2023-01-17T19:27:52.933Z,93388.78
2023-01-17T19:30:20.378Z,93376.06
2023-01-17T19:32:49.366Z,93376.66
2023-01-17T19:35:16.142Z,93386.34
2023-01-17T19:37:46.734Z,93383.56
2023-01-17T19:40:14.657Z,93383.56
2023-01-17T19:42:41.251Z,93381.47
2023-01-17T19:45:08.660Z,93379.84
2023-01-17T19:47:35.355Z,93375.41
2023-01-17T19:50:02.128Z,93371.44
2023-01-17T19:52:29.827Z,93365.84
2023-01-17T19:54:56.616Z,93371.09
2023-01-17T19:57:24.367Z,93373.06
2023-01-17T19:59:51.043Z,93375.25
2023-01-17T20:02:17.703Z,93370.16
2023-01-17T20:04:44.521Z,93367.53
2023-01-17T20:07:11.035Z,93373.06
2023-01-17T20:09:37.967Z,93368.47
2023-01-17T20:12:04.636Z,93371.09
2023-01-17T20:14:31.174Z,93367.81
2023-01-17T20:16:57.712Z,93372.25
2023-01-17T20:19:24.322Z,93356.97
2023-01-17T20:21:50.831Z,93354.72
2023-01-17T20:24:17.459Z,93358.31
2023-01-17T20:26:44.190Z,93360.31
2023-01-17T20:29:12.537Z,93344.22
2023-01-17T20:31:39.886Z,93345.06
2023-01-17T20:34:07.057Z,93341.41
2023-01-17T20:36:33.685Z,93342.25
2023-01-17T20:39:02.708Z,93343.84
2023-01-17T20:41:30.333Z,93339.25
2023-01-17T20:43:58.344Z,93339.63
2023-01-17T20:46:25.780Z,93337.00
2023-01-17T20:48:53.502Z,93336.00
2023-01-17T20:51:21.378Z,93331.94
2023-01-17T20:53:51.583Z,93326.06
2023-01-17T20:56:18.966Z,93327.69
2023-01-17T20:58:45.655Z,93327.69
2023-01-17T21:01:13.239Z,93314.22
2023-01-17T21:03:40.038Z,93324.97
2023-01-17T21:06:08.187Z,93322.19
2023-01-17T21:08:36.204Z,93319.09
2023-01-17T21:11:02.864Z,93320.09
2023-01-17T21:13:29.425Z,93309.63
2023-01-17T21:15:55.982Z,93310.06
2023-01-17T21:18:23.386Z,93301.19
2023-01-17T21:20:50.093Z,93307.09
2023-01-17T21:23:20.232Z,93310.16
2023-01-17T21:25:49.500Z,93318.47
2023-01-17T21:28:16.042Z,93327.78
2023-01-17T21:30:42.568Z,93318.47
2023-01-17T21:33:09.131Z,93314.41
2023-01-17T21:35:35.658Z,93320.91
2023-01-17T21:38:02.163Z,93327.41
2023-01-17T21:40:28.669Z,93327.59
2023-01-17T21:42:55.179Z,93339.88
2023-01-17T21:45:21.667Z,93329.75
2023-01-17T21:47:50.012Z,93330.13
2023-01-17T21:50:32.061Z,93325.88
2023-01-17T21:52:59.483Z,93323.72
2023-01-17T21:55:44.736Z,93323.06
2023-01-17T21:58:33.295Z,93324.88
2023-01-17T22:01:08.901Z,93313.59
2023-01-17T22:03:36.082Z,93323.06
2023-01-17T22:06:04.277Z,93324.53
2023-01-17T22:08:31.611Z,93322.09
2023-01-17T22:11:02.319Z,93316.22
2023-01-17T22:13:30.548Z,93299.94
2023-01-17T22:15:58.572Z,93301.00
2023-01-17T22:18:25.205Z,93302.00
2023-01-17T22:20:51.731Z,93293.97
2023-01-17T22:23:18.284Z,93300.66
2023-01-17T22:25:45.397Z,93293.16
2023-01-17T22:28:12.088Z,93292.88
2023-01-17T22:30:38.660Z,93298.31
2023-01-17T22:33:05.246Z,93299.13
2023-01-17T22:35:31.803Z,93306.72
2023-01-17T22:37:58.783Z,93299.84
2023-01-17T22:40:26.216Z,93301.75
2023-01-17T22:42:52.769Z,93300.41
2023-01-17T22:45:20.120Z,93294.31
2023-01-17T22:47:46.681Z,93297.94
2023-01-17T22:50:13.365Z,93306.34
2023-01-17T22:52:39.963Z,93300.31
2023-01-17T22:55:06.695Z,93308.38
2023-01-17T22:57:33.389Z,93307.72
2023-01-17T23:00:00.113Z,93294.44
2023-01-17T23:02:26.677Z,93298.69
2023-01-17T23:04:53.316Z,93294.06
2023-01-17T23:07:19.833Z,93286.84
2023-01-17T23:09:46.366Z,93290.06
2023-01-17T23:12:12.967Z,93269.94
2023-01-17T23:14:58.114Z,93280.88
2023-01-17T23:17:43.152Z,93280.88
2023-01-17T23:20:11.233Z,93280.88
2023-01-17T23:22:37.914Z,93276.63
2023-01-17T23:25:06.061Z,93272.19
2023-01-17T23:27:51.332Z,93264.13
2023-01-17T23:30:25.154Z,93264.41
2023-01-17T23:32:53.169Z,93273.44
2023-01-17T23:35:21.090Z,93272.81
2023-01-17T23:38:06.770Z,93276.34
2023-01-17T23:40:35.006Z,93274.09
2023-01-17T23:43:20.152Z,93278.97
2023-01-17T23:45:46.730Z,93277.53
2023-01-17T23:48:13.627Z,93262.44
2023-01-17T23:50:44.284Z,93263.84
2023-01-17T23:53:12.045Z,93260.06
2023-01-17T23:55:39.685Z,93264.13
2023-01-17T23:58:07.133Z,93260.97
